sensor_id;sensor_type;location;lat;lon;timestamp;pressure;altitude;pressure_sealevel;temperature;humidity
65659;BME280;60181;53.258;6.932;2023-02-12T00:02:55;103865.64;;;14.77;64.36
65659;BME280;60181;53.258;6.932;2023-02-12T00:06:59;103868.57;;;14.76;64.65
65659;BME280;60181;53.258;6.932;2023-02-12T00:11:12;103872.01;;;14.76;64.52
65659;BME280;60181;53.258;6.932;2023-02-12T00:15:07;103874.93;;;14.75;65.22
65659;BME280;60181;53.258;6.932;2023-02-12T00:19:11;103876.56;;;14.74;64.95
65659;BME280;60181;53.258;6.932;2023-02-12T00:23:15;103878.50;;;14.74;64.87
65659;BME280;60181;53.258;6.932;2023-02-12T00:27:20;103881.21;;;14.74;64.74
65659;BME280;60181;53.258;6.932;2023-02-12T00:31:24;103882.26;;;14.75;64.49
65659;BME280;60181;53.258;6.932;2023-02-12T00:35:27;103880.24;;;14.72;64.61
65659;BME280;60181;53.258;6.932;2023-02-12T00:39:31;103879.47;;;14.68;64.79
65659;BME280;60181;53.258;6.932;2023-02-12T00:43:35;103879.37;;;14.63;64.94
65659;BME280;60181;53.258;6.932;2023-02-12T00:47:39;103879.68;;;14.58;65.04
65659;BME280;60181;53.258;6.932;2023-02-12T00:51:43;103879.90;;;14.53;65.09
65659;BME280;60181;53.258;6.932;2023-02-12T00:55:47;103879.96;;;14.49;65.08
65659;BME280;60181;53.258;6.932;2023-02-12T00:59:51;103880.57;;;14.46;65.06
65659;BME280;60181;53.258;6.932;2023-02-12T01:03:55;103883.52;;;14.42;65.09
65659;BME280;60181;53.258;6.932;2023-02-12T01:07:59;103885.84;;;14.40;65.08
65659;BME280;60181;53.258;6.932;2023-02-12T01:12:03;103886.77;;;14.38;65.09
65659;BME280;60181;53.258;6.932;2023-02-12T01:16:08;103888.62;;;14.35;65.08
65659;BME280;60181;53.258;6.932;2023-02-12T01:20:12;103892.14;;;14.34;65.07
65659;BME280;60181;53.258;6.932;2023-02-12T01:24:15;103893.93;;;14.32;65.05
65659;BME280;60181;53.258;6.932;2023-02-12T01:28:19;103895.24;;;14.31;65.05
65659;BME280;60181;53.258;6.932;2023-02-12T01:32:23;103895.24;;;14.29;65.04
65659;BME280;60181;53.258;6.932;2023-02-12T01:36:27;103894.25;;;14.29;65.07
65659;BME280;60181;53.258;6.932;2023-02-12T01:40:31;103893.24;;;14.32;64.55
65659;BME280;60181;53.258;6.932;2023-02-12T01:44:35;103893.43;;;14.33;64.66
65659;BME280;60181;53.258;6.932;2023-02-12T01:48:41;103892.55;;;14.34;64.71
65659;BME280;60181;53.258;6.932;2023-02-12T01:52:44;103891.70;;;14.35;64.83
65659;BME280;60181;53.258;6.932;2023-02-12T01:56:47;103890.48;;;14.35;64.98
65659;BME280;60181;53.258;6.932;2023-02-12T02:00:51;103888.35;;;14.36;64.86
65659;BME280;60181;53.258;6.932;2023-02-12T02:04:56;103887.43;;;14.38;64.94
65659;BME280;60181;53.258;6.932;2023-02-12T02:08:59;103887.28;;;14.38;65.13
65659;BME280;60181;53.258;6.932;2023-02-12T02:13:03;103887.62;;;14.39;65.25
65659;BME280;60181;53.258;6.932;2023-02-12T02:17:16;103887.18;;;14.38;65.48
65659;BME280;60181;53.258;6.932;2023-02-12T02:33:24;103884.13;;;14.34;65.83
65659;BME280;60181;53.258;6.932;2023-02-12T02:37:46;103883.56;;;14.33;65.84
65659;BME280;60181;53.258;6.932;2023-02-12T02:41:33;103882.28;;;14.32;65.91
65659;BME280;60181;53.258;6.932;2023-02-12T02:45:50;103881.59;;;14.31;65.97
65659;BME280;60181;53.258;6.932;2023-02-12T02:49:43;103879.54;;;14.30;65.98
65659;BME280;60181;53.258;6.932;2023-02-12T02:57:56;103875.77;;;14.29;66.08
65659;BME280;60181;53.258;6.932;2023-02-12T03:01:53;103874.89;;;14.28;66.08
65659;BME280;60181;53.258;6.932;2023-02-12T03:05:56;103874.79;;;14.28;66.12
65659;BME280;60181;53.258;6.932;2023-02-12T03:10:01;103874.12;;;14.28;66.11
65659;BME280;60181;53.258;6.932;2023-02-12T03:14:14;103874.45;;;14.28;66.04
65659;BME280;60181;53.258;6.932;2023-02-12T03:18:08;103875.04;;;14.28;66.01
65659;BME280;60181;53.258;6.932;2023-02-12T03:22:11;103875.79;;;14.28;66.27
65659;BME280;60181;53.258;6.932;2023-02-12T03:26:15;103877.37;;;14.28;66.14
65659;BME280;60181;53.258;6.932;2023-02-12T03:30:19;103877.98;;;14.29;66.14
65659;BME280;60181;53.258;6.932;2023-02-12T03:34:29;103878.31;;;14.29;66.15
65659;BME280;60181;53.258;6.932;2023-02-12T03:38:33;103878.48;;;14.29;66.21
65659;BME280;60181;53.258;6.932;2023-02-12T03:42:39;103877.66;;;14.29;66.40
65659;BME280;60181;53.258;6.932;2023-02-12T03:54:43;103881.09;;;14.27;66.45
65659;BME280;60181;53.258;6.932;2023-02-12T03:58:47;103882.81;;;14.27;66.50
65659;BME280;60181;53.258;6.932;2023-02-12T04:02:51;103883.22;;;14.27;66.53
65659;BME280;60181;53.258;6.932;2023-02-12T04:06:55;103884.28;;;14.27;66.57
65659;BME280;60181;53.258;6.932;2023-02-12T04:11:13;103884.19;;;14.26;66.60
65659;BME280;60181;53.258;6.932;2023-02-12T04:15:22;103883.58;;;14.26;66.63
65659;BME280;60181;53.258;6.932;2023-02-12T04:19:07;103883.56;;;14.26;66.62
65659;BME280;60181;53.258;6.932;2023-02-12T04:35:28;103888.71;;;14.24;66.71
65659;BME280;60181;53.258;6.932;2023-02-12T04:39:27;103891.03;;;14.24;66.74
65659;BME280;60181;53.258;6.932;2023-02-12T04:43:32;103892.72;;;14.25;66.58
65659;BME280;60181;53.258;6.932;2023-02-12T04:47:34;103895.04;;;14.25;66.76
65659;BME280;60181;53.258;6.932;2023-02-12T04:51:38;103896.00;;;14.25;66.80
65659;BME280;60181;53.258;6.932;2023-02-12T04:55:42;103898.00;;;14.26;66.86
65659;BME280;60181;53.258;6.932;2023-02-12T04:59:46;103900.45;;;14.25;67.11
65659;BME280;60181;53.258;6.932;2023-02-12T05:03:50;103903.28;;;14.25;67.17
65659;BME280;60181;53.258;6.932;2023-02-12T05:07:54;103905.19;;;14.24;67.23
65659;BME280;60181;53.258;6.932;2023-02-12T05:11:58;103906.93;;;14.23;67.29
65659;BME280;60181;53.258;6.932;2023-02-12T05:16:06;103908.03;;;14.21;67.30
65659;BME280;60181;53.258;6.932;2023-02-12T05:20:07;103910.44;;;14.20;67.34
65659;BME280;60181;53.258;6.932;2023-02-12T05:24:10;103912.65;;;14.20;67.33
65659;BME280;60181;53.258;6.932;2023-02-12T05:28:14;103914.89;;;14.19;67.39
65659;BME280;60181;53.258;6.932;2023-02-12T05:32:18;103916.03;;;14.19;67.39
65659;BME280;60181;53.258;6.932;2023-02-12T05:36:23;103916.72;;;14.18;67.46
65659;BME280;60181;53.258;6.932;2023-02-12T05:40:26;103917.65;;;14.17;67.50
65659;BME280;60181;53.258;6.932;2023-02-12T05:44:30;103918.63;;;14.17;67.37
65659;BME280;60181;53.258;6.932;2023-02-12T05:48:34;103918.68;;;14.19;67.05
65659;BME280;60181;53.258;6.932;2023-02-12T05:52:38;103918.12;;;14.21;67.09
65659;BME280;60181;53.258;6.932;2023-02-12T05:56:43;103916.53;;;14.22;67.28
65659;BME280;60181;53.258;6.932;2023-02-12T06:00:46;103915.94;;;14.21;67.60
65659;BME280;60181;53.258;6.932;2023-02-12T06:04:51;103916.53;;;14.20;67.77
65659;BME280;60181;53.258;6.932;2023-02-12T06:08:54;103917.63;;;14.19;67.81
65659;BME280;60181;53.258;6.932;2023-02-12T06:12:58;103918.87;;;14.18;67.84
65659;BME280;60181;53.258;6.932;2023-02-12T06:17:02;103921.08;;;14.18;67.86
65659;BME280;60181;53.258;6.932;2023-02-12T06:21:06;103924.49;;;14.17;67.87
65659;BME280;60181;53.258;6.932;2023-02-12T06:25:10;103927.16;;;14.16;67.94
65659;BME280;60181;53.258;6.932;2023-02-12T06:29:14;103930.35;;;14.16;67.91
65659;BME280;60181;53.258;6.932;2023-02-12T06:33:18;103934.25;;;14.15;67.88
65659;BME280;60181;53.258;6.932;2023-02-12T06:37:22;103938.32;;;14.17;67.48
65659;BME280;60181;53.258;6.932;2023-02-12T06:41:26;103943.65;;;14.19;67.36
65659;BME280;60181;53.258;6.932;2023-02-12T06:45:31;103948.58;;;14.21;67.53
65659;BME280;60181;53.258;6.932;2023-02-12T06:49:34;103953.02;;;14.22;67.49
65659;BME280;60181;53.258;6.932;2023-02-12T06:53:38;103958.39;;;14.24;67.55
65659;BME280;60181;53.258;6.932;2023-02-12T06:57:42;103961.89;;;14.24;67.72
65659;BME280;60181;53.258;6.932;2023-02-12T07:01:46;103965.05;;;14.25;67.77
65659;BME280;60181;53.258;6.932;2023-02-12T07:05:50;103969.43;;;14.28;68.20
65659;BME280;60181;53.258;6.932;2023-02-12T07:09:54;103974.46;;;14.29;67.89
65659;BME280;60181;53.258;6.932;2023-02-12T07:13:58;103977.84;;;14.29;67.67
65659;BME280;60181;53.258;6.932;2023-02-12T07:18:02;103982.02;;;14.27;67.82
65659;BME280;60181;53.258;6.932;2023-02-12T07:22:06;103985.75;;;14.25;67.80
65659;BME280;60181;53.258;6.932;2023-02-12T07:26:11;103990.31;;;14.23;67.72
65659;BME280;60181;53.258;6.932;2023-02-12T07:30:14;103994.43;;;14.20;67.62
65659;BME280;60181;53.258;6.932;2023-02-12T07:34:18;103999.26;;;14.18;67.48
65659;BME280;60181;53.258;6.932;2023-02-12T07:38:22;104002.17;;;14.16;67.40
65659;BME280;60181;53.258;6.932;2023-02-12T07:42:26;104004.65;;;14.15;67.28
65659;BME280;60181;53.258;6.932;2023-02-12T07:46:31;104006.88;;;14.14;67.19
65659;BME280;60181;53.258;6.932;2023-02-12T07:50:34;104009.78;;;14.13;67.39
65659;BME280;60181;53.258;6.932;2023-02-12T07:54:38;104012.62;;;14.30;64.44
65659;BME280;60181;53.258;6.932;2023-02-12T07:58:43;104014.88;;;14.36;65.67
65659;BME280;60181;53.258;6.932;2023-02-12T08:02:52;104016.39;;;14.35;66.22
65659;BME280;60181;53.258;6.932;2023-02-12T08:06:51;104017.91;;;14.33;66.27
65659;BME280;60181;53.258;6.932;2023-02-12T08:10:54;104018.99;;;14.31;66.30
65659;BME280;60181;53.258;6.932;2023-02-12T08:14:58;104019.42;;;14.28;66.28
65659;BME280;60181;53.258;6.932;2023-02-12T08:19:02;104021.56;;;14.26;66.23
65659;BME280;60181;53.258;6.932;2023-02-12T08:23:06;104023.18;;;14.25;66.21
65659;BME280;60181;53.258;6.932;2023-02-12T08:27:10;104024.93;;;14.24;66.19
65659;BME280;60181;53.258;6.932;2023-02-12T08:31:18;104026.79;;;14.23;66.16
65659;BME280;60181;53.258;6.932;2023-02-12T08:35:18;104028.64;;;14.23;66.16
65659;BME280;60181;53.258;6.932;2023-02-12T08:39:23;104032.58;;;14.22;66.13
65659;BME280;60181;53.258;6.932;2023-02-12T08:43:26;104035.82;;;14.21;66.11
65659;BME280;60181;53.258;6.932;2023-02-12T08:47:30;104038.37;;;14.21;66.04
65659;BME280;60181;53.258;6.932;2023-02-12T08:51:34;104041.91;;;14.21;66.04
65659;BME280;60181;53.258;6.932;2023-02-12T08:55:38;104046.28;;;14.21;65.98
65659;BME280;60181;53.258;6.932;2023-02-12T08:59:42;104049.41;;;14.21;65.98
65659;BME280;60181;53.258;6.932;2023-02-12T09:03:47;104051.06;;;14.21;65.92
65659;BME280;60181;53.258;6.932;2023-02-12T09:07:50;104053.20;;;14.21;65.92
65659;BME280;60181;53.258;6.932;2023-02-12T09:11:54;104054.86;;;14.21;65.88
65659;BME280;60181;53.258;6.932;2023-02-12T09:15:59;104056.34;;;14.21;65.84
65659;BME280;60181;53.258;6.932;2023-02-12T09:20:02;104058.08;;;14.21;65.83
65659;BME280;60181;53.258;6.932;2023-02-12T09:24:06;104059.61;;;14.22;65.80
65659;BME280;60181;53.258;6.932;2023-02-12T09:28:11;104060.45;;;14.23;65.72
65659;BME280;60181;53.258;6.932;2023-02-12T09:32:14;104061.76;;;14.23;65.74
65659;BME280;60181;53.258;6.932;2023-02-12T09:36:18;104063.49;;;14.27;65.66
65659;BME280;60181;53.258;6.932;2023-02-12T09:44:28;104067.36;;;14.32;65.72
65659;BME280;60181;53.258;6.932;2023-02-12T09:48:39;104068.04;;;14.32;65.79
65659;BME280;60181;53.258;6.932;2023-02-12T09:52:34;104070.26;;;14.31;65.76
65659;BME280;60181;53.258;6.932;2023-02-12T09:56:38;104073.47;;;14.31;65.73
65659;BME280;60181;53.258;6.932;2023-02-12T10:00:42;104076.05;;;14.31;65.68
65659;BME280;60181;53.258;6.932;2023-02-12T10:04:46;104078.76;;;14.30;65.71
65659;BME280;60181;53.258;6.932;2023-02-12T10:12:56;104082.54;;;14.31;65.59
65659;BME280;60181;53.258;6.932;2023-02-12T10:25:08;104086.77;;;14.32;65.46
65659;BME280;60181;53.258;6.932;2023-02-12T10:29:12;104087.15;;;14.35;65.28
65659;BME280;60181;53.258;6.932;2023-02-12T10:41:22;104088.50;;;14.46;65.09
65659;BME280;60181;53.258;6.932;2023-02-12T10:45:36;104089.75;;;14.46;65.28
65659;BME280;60181;53.258;6.932;2023-02-12T10:49:30;104090.77;;;14.45;65.38
65659;BME280;60181;53.258;6.932;2023-02-12T10:53:35;104092.04;;;14.44;65.41
65659;BME280;60181;53.258;6.932;2023-02-12T10:57:38;104093.81;;;14.44;65.40
65659;BME280;60181;53.258;6.932;2023-02-12T11:01:42;104095.37;;;14.43;65.36
65659;BME280;60181;53.258;6.932;2023-02-12T11:05:46;104096.92;;;14.43;65.36
65659;BME280;60181;53.258;6.932;2023-02-12T11:09:51;104098.95;;;14.43;65.32
65659;BME280;60181;53.258;6.932;2023-02-12T11:14:04;104100.56;;;14.43;65.29
65659;BME280;60181;53.258;6.932;2023-02-12T11:18:05;104100.89;;;14.43;65.29
65659;BME280;60181;53.258;6.932;2023-02-12T11:22:03;104101.55;;;14.43;65.27
65659;BME280;60181;53.258;6.932;2023-02-12T11:26:22;104101.71;;;14.43;65.26
65659;BME280;60181;53.258;6.932;2023-02-12T11:30:12;104101.90;;;14.44;65.23
65659;BME280;60181;53.258;6.932;2023-02-12T11:34:14;104101.21;;;14.44;65.14
65659;BME280;60181;53.258;6.932;2023-02-12T11:38:26;104098.02;;;14.45;65.11
65659;BME280;60181;53.258;6.932;2023-02-12T11:42:23;104093.64;;;14.46;65.09
65659;BME280;60181;53.258;6.932;2023-02-12T11:46:26;104089.21;;;14.48;64.98
65659;BME280;60181;53.258;6.932;2023-02-12T11:50:30;104084.69;;;14.50;64.84
65659;BME280;60181;53.258;6.932;2023-02-12T11:54:38;104080.03;;;14.53;64.87
65659;BME280;60181;53.258;6.932;2023-02-12T11:58:38;104076.33;;;14.58;64.43
65659;BME280;60181;53.258;6.932;2023-02-12T12:02:54;104073.17;;;14.62;64.42
65659;BME280;60181;53.258;6.932;2023-02-12T12:06:47;104069.32;;;14.65;64.38
65659;BME280;60181;53.258;6.932;2023-02-12T12:14:54;104063.29;;;14.70;64.32
65659;BME280;60181;53.258;6.932;2023-02-12T12:19:05;104060.71;;;14.71;64.37
65659;BME280;60181;53.258;6.932;2023-02-12T12:23:04;104056.64;;;14.72;64.40
65659;BME280;60181;53.258;6.932;2023-02-12T12:27:20;104053.60;;;14.73;64.50
65659;BME280;60181;53.258;6.932;2023-02-12T12:35:14;104050.28;;;14.72;64.58
65659;BME280;60181;53.258;6.932;2023-02-12T12:43:29;104046.09;;;14.71;64.62
65659;BME280;60181;53.258;6.932;2023-02-12T13:03:58;104039.44;;;14.67;64.83
65659;BME280;60181;53.258;6.932;2023-02-12T13:07:50;104036.72;;;14.66;64.83
65659;BME280;60181;53.258;6.932;2023-02-12T13:12:07;104034.25;;;14.64;64.85
65659;BME280;60181;53.258;6.932;2023-02-12T13:16:05;104030.71;;;14.63;64.85
65659;BME280;60181;53.258;6.932;2023-02-12T13:20:01;104025.61;;;14.62;64.87
65659;BME280;60181;53.258;6.932;2023-02-12T13:24:02;104022.50;;;14.61;64.88
65659;BME280;60181;53.258;6.932;2023-02-12T13:28:08;104018.48;;;14.60;64.96
65659;BME280;60181;53.258;6.932;2023-02-12T13:32:14;104014.69;;;14.59;64.98
65659;BME280;60181;53.258;6.932;2023-02-12T13:36:14;104011.23;;;14.58;65.00
65659;BME280;60181;53.258;6.932;2023-02-12T13:40:22;104008.41;;;14.56;65.03
65659;BME280;60181;53.258;6.932;2023-02-12T13:44:25;104006.99;;;14.55;65.10
65659;BME280;60181;53.258;6.932;2023-02-12T13:52:32;104004.44;;;14.56;65.09
65659;BME280;60181;53.258;6.932;2023-02-12T13:56:39;104002.61;;;14.56;65.09
65659;BME280;60181;53.258;6.932;2023-02-12T14:04:45;103996.75;;;14.54;65.23
65659;BME280;60181;53.258;6.932;2023-02-12T14:08:47;103994.38;;;14.54;65.24
65659;BME280;60181;53.258;6.932;2023-02-12T14:12:50;103993.18;;;14.53;65.21
65659;BME280;60181;53.258;6.932;2023-02-12T14:16:54;103992.58;;;14.52;65.23
65659;BME280;60181;53.258;6.932;2023-02-12T14:29:14;103989.67;;;14.50;65.24
65659;BME280;60181;53.258;6.932;2023-02-12T14:33:17;103989.07;;;14.49;65.26
65659;BME280;60181;53.258;6.932;2023-02-12T14:37:15;103988.77;;;14.48;65.27
65659;BME280;60181;53.258;6.932;2023-02-12T14:41:24;103989.45;;;14.47;65.30
65659;BME280;60181;53.258;6.932;2023-02-12T14:45:32;103990.05;;;14.46;65.29
65659;BME280;60181;53.258;6.932;2023-02-12T14:53:33;103990.14;;;14.45;65.30
65659;BME280;60181;53.258;6.932;2023-02-12T14:57:35;103990.45;;;14.45;65.31
65659;BME280;60181;53.258;6.932;2023-02-12T15:01:38;103990.44;;;14.44;65.32
65659;BME280;60181;53.258;6.932;2023-02-12T15:05:46;103989.99;;;14.44;65.32
65659;BME280;60181;53.258;6.932;2023-02-12T15:09:55;103989.72;;;14.44;65.32
65659;BME280;60181;53.258;6.932;2023-02-12T15:13:58;103987.07;;;14.43;65.33
65659;BME280;60181;53.258;6.932;2023-02-12T15:17:55;103985.47;;;14.43;65.32
65659;BME280;60181;53.258;6.932;2023-02-12T15:21:58;103983.72;;;14.43;65.33
65659;BME280;60181;53.258;6.932;2023-02-12T15:26:02;103981.32;;;14.42;65.34
65659;BME280;60181;53.258;6.932;2023-02-12T15:30:11;103979.58;;;14.42;65.33
65659;BME280;60181;53.258;6.932;2023-02-12T15:34:12;103977.61;;;14.44;65.39
65659;BME280;60181;53.258;6.932;2023-02-12T15:38:20;103977.01;;;14.46;65.38
65659;BME280;60181;53.258;6.932;2023-02-12T15:42:24;103976.56;;;14.47;65.38
65659;BME280;60181;53.258;6.932;2023-02-12T15:46:22;103975.85;;;14.46;65.40
65659;BME280;60181;53.258;6.932;2023-02-12T15:50:26;103975.29;;;14.45;65.42
65659;BME280;60181;53.258;6.932;2023-02-12T15:54:29;103974.82;;;14.44;65.48
65659;BME280;60181;53.258;6.932;2023-02-12T15:58:40;103974.87;;;14.43;65.49
65659;BME280;60181;53.258;6.932;2023-02-12T16:02:37;103974.46;;;14.42;65.52
65659;BME280;60181;53.258;6.932;2023-02-12T16:06:41;103974.33;;;14.41;65.47
65659;BME280;60181;53.258;6.932;2023-02-12T16:10:47;103973.86;;;14.41;65.50
65659;BME280;60181;53.258;6.932;2023-02-12T16:14:53;103974.17;;;14.40;65.47
65659;BME280;60181;53.258;6.932;2023-02-12T16:19:06;103973.71;;;14.39;65.45
65659;BME280;60181;53.258;6.932;2023-02-12T16:22:57;103974.04;;;14.39;65.44
65659;BME280;60181;53.258;6.932;2023-02-12T16:27:08;103974.60;;;14.39;65.41
65659;BME280;60181;53.258;6.932;2023-02-12T16:31:07;103974.11;;;14.39;65.39
65659;BME280;60181;53.258;6.932;2023-02-12T16:39:29;103973.73;;;14.39;65.42
65659;BME280;60181;53.258;6.932;2023-02-12T16:43:21;103975.28;;;14.38;65.40
65659;BME280;60181;53.258;6.932;2023-02-12T16:47:22;103977.25;;;14.38;65.67
65659;BME280;60181;53.258;6.932;2023-02-12T16:51:27;103979.05;;;14.39;65.44
65659;BME280;60181;53.258;6.932;2023-02-12T16:55:29;103981.01;;;14.40;65.40
65659;BME280;60181;53.258;6.932;2023-02-12T16:59:33;103983.52;;;14.40;65.46
65659;BME280;60181;53.258;6.932;2023-02-12T17:03:37;103986.73;;;14.39;65.48
65659;BME280;60181;53.258;6.932;2023-02-12T17:07:41;103990.34;;;14.39;65.49
65659;BME280;60181;53.258;6.932;2023-02-12T17:11:45;103993.85;;;14.39;65.49
65659;BME280;60181;53.258;6.932;2023-02-12T17:15:53;103996.96;;;14.38;65.49
65659;BME280;60181;53.258;6.932;2023-02-12T17:19:53;104001.00;;;14.38;65.51
65659;BME280;60181;53.258;6.932;2023-02-12T17:23:57;104004.58;;;14.37;65.54
65659;BME280;60181;53.258;6.932;2023-02-12T17:28:01;104007.95;;;14.37;65.51
65659;BME280;60181;53.258;6.932;2023-02-12T17:32:05;104011.16;;;14.37;65.50
65659;BME280;60181;53.258;6.932;2023-02-12T17:36:10;104014.12;;;14.37;65.54
65659;BME280;60181;53.258;6.932;2023-02-12T17:40:13;104017.16;;;14.36;65.53
65659;BME280;60181;53.258;6.932;2023-02-12T17:44:17;104020.08;;;14.36;65.52
65659;BME280;60181;53.258;6.932;2023-02-12T17:48:21;104024.05;;;14.36;65.53
65659;BME280;60181;53.258;6.932;2023-02-12T17:52:25;104028.56;;;14.36;65.54
65659;BME280;60181;53.258;6.932;2023-02-12T17:56:29;104031.93;;;14.35;65.52
65659;BME280;60181;53.258;6.932;2023-02-12T18:00:33;104036.27;;;14.35;65.53
65659;BME280;60181;53.258;6.932;2023-02-12T18:04:37;104039.15;;;14.35;65.54
65659;BME280;60181;53.258;6.932;2023-02-12T18:08:41;104041.53;;;14.35;65.55
65659;BME280;60181;53.258;6.932;2023-02-12T18:12:45;104043.75;;;14.34;65.57
65659;BME280;60181;53.258;6.932;2023-02-12T18:16:49;104045.28;;;14.34;65.52
65659;BME280;60181;53.258;6.932;2023-02-12T18:20:53;104046.92;;;14.34;65.51
65659;BME280;60181;53.258;6.932;2023-02-12T18:24:57;104048.40;;;14.34;65.47
65659;BME280;60181;53.258;6.932;2023-02-12T18:29:01;104049.39;;;14.34;65.47
65659;BME280;60181;53.258;6.932;2023-02-12T18:33:05;104050.18;;;14.34;65.49
65659;BME280;60181;53.258;6.932;2023-02-12T18:37:10;104050.44;;;14.35;65.46
65659;BME280;60181;53.258;6.932;2023-02-12T18:41:14;104050.60;;;14.35;65.45
65659;BME280;60181;53.258;6.932;2023-02-12T18:45:17;104051.44;;;14.35;65.45
65659;BME280;60181;53.258;6.932;2023-02-12T18:49:21;104051.66;;;14.36;65.44
65659;BME280;60181;53.258;6.932;2023-02-12T18:53:25;104050.77;;;14.36;65.48
65659;BME280;60181;53.258;6.932;2023-02-12T18:57:29;104049.07;;;14.38;65.66
65659;BME280;60181;53.258;6.932;2023-02-12T19:01:34;104048.54;;;14.42;65.31
65659;BME280;60181;53.258;6.932;2023-02-12T19:05:37;104047.30;;;14.44;65.33
65659;BME280;60181;53.258;6.932;2023-02-12T19:09:41;104045.97;;;14.44;65.50
65659;BME280;60181;53.258;6.932;2023-02-12T19:13:46;104044.80;;;14.43;65.59
65659;BME280;60181;53.258;6.932;2023-02-12T19:17:49;104043.84;;;14.42;65.58
65659;BME280;60181;53.258;6.932;2023-02-12T19:21:53;104042.54;;;14.42;65.61
65659;BME280;60181;53.258;6.932;2023-02-12T19:26:01;104042.36;;;14.41;65.60
65659;BME280;60181;53.258;6.932;2023-02-12T19:30:01;104041.98;;;14.41;65.63
65659;BME280;60181;53.258;6.932;2023-02-12T19:34:06;104042.36;;;14.40;65.62
65659;BME280;60181;53.258;6.932;2023-02-12T19:38:09;104043.24;;;14.40;65.60
65659;BME280;60181;53.258;6.932;2023-02-12T19:42:13;104043.54;;;14.39;65.64
65659;BME280;60181;53.258;6.932;2023-02-12T19:46:18;104043.62;;;14.39;65.59
65659;BME280;60181;53.258;6.932;2023-02-12T19:50:21;104043.16;;;14.39;65.57
65659;BME280;60181;53.258;6.932;2023-02-12T19:54:25;104042.42;;;14.38;65.57
65659;BME280;60181;53.258;6.932;2023-02-12T19:58:29;104041.74;;;14.38;65.57
65659;BME280;60181;53.258;6.932;2023-02-12T20:02:33;104041.15;;;14.38;65.58
65659;BME280;60181;53.258;6.932;2023-02-12T20:06:37;104039.88;;;14.37;65.59
65659;BME280;60181;53.258;6.932;2023-02-12T20:10:41;104038.29;;;14.37;65.56
65659;BME280;60181;53.258;6.932;2023-02-12T20:14:45;104037.55;;;14.37;65.55
65659;BME280;60181;53.258;6.932;2023-02-12T20:18:50;104036.62;;;14.36;65.54
65659;BME280;60181;53.258;6.932;2023-02-12T20:22:53;104035.68;;;14.36;65.56
65659;BME280;60181;53.258;6.932;2023-02-12T20:26:58;104036.34;;;14.36;65.56
65659;BME280;60181;53.258;6.932;2023-02-12T20:31:11;104036.83;;;14.36;65.54
65659;BME280;60181;53.258;6.932;2023-02-12T20:35:05;104036.83;;;14.36;65.48
65659;BME280;60181;53.258;6.932;2023-02-12T20:39:09;104036.46;;;14.36;65.50
65659;BME280;60181;53.258;6.932;2023-02-12T20:43:13;104037.71;;;14.37;65.46
65659;BME280;60181;53.258;6.932;2023-02-12T20:47:17;104037.96;;;14.37;65.45
65659;BME280;60181;53.258;6.932;2023-02-12T20:51:22;104038.27;;;14.44;65.23
65659;BME280;60181;53.258;6.932;2023-02-12T20:55:25;104039.10;;;14.49;65.18
65659;BME280;60181;53.258;6.932;2023-02-12T20:59:29;104039.00;;;14.50;65.33
65659;BME280;60181;53.258;6.932;2023-02-12T21:03:33;104039.16;;;14.50;65.53
65659;BME280;60181;53.258;6.932;2023-02-12T21:07:37;104038.40;;;14.49;65.61
65659;BME280;60181;53.258;6.932;2023-02-12T21:11:41;104038.10;;;14.48;65.68
65659;BME280;60181;53.258;6.932;2023-02-12T21:15:45;104038.73;;;14.48;65.69
65659;BME280;60181;53.258;6.932;2023-02-12T21:19:49;104039.83;;;14.47;65.65
65659;BME280;60181;53.258;6.932;2023-02-12T21:23:54;104040.91;;;14.47;65.63
65659;BME280;60181;53.258;6.932;2023-02-12T21:27:57;104040.59;;;14.46;65.66
65659;BME280;60181;53.258;6.932;2023-02-12T21:32:01;104040.33;;;14.46;65.66
65659;BME280;60181;53.258;6.932;2023-02-12T21:36:06;104039.92;;;14.46;65.65
65659;BME280;60181;53.258;6.932;2023-02-12T21:40:09;104039.95;;;14.45;65.65
65659;BME280;60181;53.258;6.932;2023-02-12T21:44:14;104040.11;;;14.45;65.62
65659;BME280;60181;53.258;6.932;2023-02-12T21:48:17;104040.01;;;14.44;65.60
65659;BME280;60181;53.258;6.932;2023-02-12T21:52:21;104040.01;;;14.44;65.62
65659;BME280;60181;53.258;6.932;2023-02-12T21:56:25;104039.76;;;14.44;65.58
65659;BME280;60181;53.258;6.932;2023-02-12T22:00:29;104039.64;;;14.44;65.59
65659;BME280;60181;53.258;6.932;2023-02-12T22:04:33;104038.72;;;14.44;65.59
65659;BME280;60181;53.258;6.932;2023-02-12T22:08:37;104037.54;;;14.46;65.50
65659;BME280;60181;53.258;6.932;2023-02-12T22:12:41;104035.63;;;14.55;64.96
65659;BME280;60181;53.258;6.932;2023-02-12T22:16:45;104034.25;;;14.70;64.24
65659;BME280;60181;53.258;6.932;2023-02-12T22:20:49;104031.92;;;14.84;64.17
65659;BME280;60181;53.258;6.932;2023-02-12T22:24:53;104029.64;;;14.95;63.85
65659;BME280;60181;53.258;6.932;2023-02-12T22:28:58;104028.70;;;15.04;63.70
65659;BME280;60181;53.258;6.932;2023-02-12T22:33:01;104029.17;;;15.10;63.80
65659;BME280;60181;53.258;6.932;2023-02-12T22:37:05;104029.53;;;15.15;63.60
65659;BME280;60181;53.258;6.932;2023-02-12T22:41:09;104029.98;;;15.19;63.63
65659;BME280;60181;53.258;6.932;2023-02-12T22:45:13;104029.71;;;15.21;63.55
65659;BME280;60181;53.258;6.932;2023-02-12T22:49:17;104031.14;;;15.23;63.50
65659;BME280;60181;53.258;6.932;2023-02-12T22:53:21;104030.79;;;15.23;63.47
65659;BME280;60181;53.258;6.932;2023-02-12T22:57:25;104030.31;;;15.24;63.47
65659;BME280;60181;53.258;6.932;2023-02-12T23:01:29;104029.64;;;15.24;63.47
65659;BME280;60181;53.258;6.932;2023-02-12T23:05:38;104029.48;;;15.24;63.37
65659;BME280;60181;53.258;6.932;2023-02-12T23:09:38;104028.39;;;15.24;63.42